Ochopee, FL (34141)

12:55 PM EST on December 06, 2016 (GMT -0500)
APRSWXNET | | Change Station

Elev 3 ft 25.96 °N, 81.51 °W | Updated 52 minutes ago

Mostly Cloudy
Mostly Cloudy
81 °F
Feels Like 88 °F
N
5
Wind Variable Wind from WSW
Gusts 0.0 mph

Today
High -- | Low -- °F
--% Chance of Precip.
Yesterday
High -- | Low -- °F
Precip. -- in
Pressure 29.95 in
Visibility 10.0 miles
Clouds Scattered Clouds 1300 ft
Mostly Cloudy 5500 ft
Heat Index 88 °F
Dew Point 77 °F
Humidity 87%
Rainfall in
Snow Depth Not available.
6:58 AM 5:34 PM
Waxing Crescent, 43% visible
METAR KMKY 061735Z AUTO 19011G20KT 10SM SCT013 BKN055 28/24 A2995 RMK AO1
Pressure 29.95 in
Visibility 10.0 miles
Clouds Scattered Clouds 1300 ft
Mostly Cloudy 5500 ft
Heat Index 88 °F
Dew Point 77 °F
Humidity 87%
Rainfall in
Snow Depth Not available.
6:58 AM 5:34 PM
Waxing Crescent, 43% visible
METAR KMKY 061735Z AUTO 19011G20KT 10SM SCT013 BKN055 28/24 A2995 RMK AO1

10-Day Weather Forecast

Almanac

Astronomy

Dec. 06, 2016 Rise Set
Actual Time
Civil Twilight
Nautical Twilight
Astronomical Twilight
Moon
Length of Visible Light
Length of Day
Tomorrow will be .
, % of the Moon is Illuminated

Today's Extremes

State Highs State Lows

Community

WunderPhotos

Upload Photos

1,955,986 photos uploaded!

WunderBlog® & News

Nearby

Air Quality

  Air Quality AQ Index Pollutant
Not available.

Snow Depth

Station Depth Elevation

Earthquake Activity

City Distance Mag. Time & Date
Minimum magnitude displayed is 2.5.

Coastal Water Temperatures

Place Temperature

Stations

Nearby Weather Stations

Station Location Temp. Windchill Dew Point Humidity Wind Precip. Elev Updated Type
                   

Watches & Warnings

There are currently no watches in effect.